Terminal Aerodrome Forecast
Issued by NWS

Home | Current Version | Previous Version | Text Only | Print | Product List | Glossary On
Versions: 1 2 3 4 5 6 7 8 9 10 11 12 13
498
FTUS46 KSGX 280520
TAFONT
TAF
KONT 280520Z 2806/2912 VRB05KT P6SM BKN200
     FM281500 03012G20KT P6SM SCT250
     FM282300 36010KT P6SM SCT250
     FM290700 04015G30KT P6SM SCT250=

USA.gov is the U.S. government's official web portal to all federal, state and local government web resources and services.